createdAt,value
2018-07-13T00:00:39.486Z,16.07
2018-07-13T00:03:08.920Z,16.04
2018-07-13T00:05:38.383Z,15.98
2018-07-13T00:08:07.642Z,15.95
2018-07-13T00:10:37.102Z,15.98
2018-07-13T00:13:07.105Z,16.02
2018-07-13T00:15:36.289Z,15.94
2018-07-13T00:18:05.719Z,15.84
2018-07-13T00:20:34.917Z,15.87
2018-07-13T00:23:04.551Z,15.81
2018-07-13T00:25:34.927Z,15.88
2018-07-13T00:28:04.622Z,15.86
2018-07-13T00:30:34.039Z,15.87
2018-07-13T00:33:05.125Z,15.90
2018-07-13T00:35:34.547Z,15.88
2018-07-13T00:38:03.982Z,15.95
2018-07-13T00:40:33.720Z,15.84
2018-07-13T00:43:03.549Z,15.87
2018-07-13T00:45:33.298Z,15.86
2018-07-13T00:48:02.810Z,15.84
2018-07-13T00:50:32.978Z,15.92
2018-07-13T00:53:02.130Z,15.85
2018-07-13T00:55:31.829Z,15.82
2018-07-13T00:58:01.324Z,15.80
2018-07-13T01:00:33.052Z,15.77
2018-07-13T01:03:04.797Z,15.80
2018-07-13T01:05:34.373Z,15.83
2018-07-13T01:08:04.000Z,15.84
2018-07-13T01:10:33.428Z,15.84
2018-07-13T01:13:06.005Z,15.81
2018-07-13T01:15:35.181Z,15.81
2018-07-13T01:18:04.855Z,15.88
2018-07-13T01:20:34.325Z,15.81
2018-07-13T01:23:03.846Z,15.80
2018-07-13T01:25:33.324Z,15.78
2018-07-13T01:28:03.289Z,15.74
2018-07-13T01:30:32.899Z,15.78
2018-07-13T01:33:02.378Z,15.75
2018-07-13T01:35:32.415Z,15.76
2018-07-13T01:38:01.894Z,15.70
2018-07-13T01:40:31.108Z,15.72
2018-07-13T01:43:00.632Z,15.72
2018-07-13T01:45:30.090Z,15.73
2018-07-13T01:47:59.592Z,15.82
2018-07-13T01:50:29.633Z,15.75
2018-07-13T01:52:58.854Z,15.71
2018-07-13T01:55:28.278Z,15.71
2018-07-13T01:57:57.738Z,15.72
2018-07-13T02:00:27.217Z,15.73
2018-07-13T02:02:56.709Z,15.81
2018-07-13T02:05:26.206Z,15.85
2018-07-13T02:07:57.120Z,15.90
2018-07-13T02:10:26.877Z,15.83
2018-07-13T02:12:57.287Z,15.83
2018-07-13T02:15:26.749Z,15.84
2018-07-13T02:17:55.884Z,15.86
2018-07-13T02:20:26.030Z,15.81
2018-07-13T02:22:55.473Z,15.86
2018-07-13T02:25:25.278Z,15.83
2018-07-13T02:27:54.460Z,15.84
2018-07-13T02:30:24.190Z,15.85
2018-07-13T02:32:53.573Z,15.94
2018-07-13T02:35:23.858Z,15.81
2018-07-13T02:37:53.330Z,15.92
2018-07-13T02:40:22.953Z,15.95
2018-07-13T02:42:52.381Z,15.93
2018-07-13T02:45:21.843Z,15.90
2018-07-13T02:47:51.241Z,15.87
2018-07-13T02:50:21.288Z,15.88
2018-07-13T02:52:50.949Z,15.87
2018-07-13T02:55:20.741Z,15.97
2018-07-13T02:57:50.647Z,15.88
2018-07-13T03:00:21.173Z,15.87
2018-07-13T03:02:50.633Z,15.82
2018-07-13T03:05:21.006Z,15.93
2018-07-13T03:07:50.482Z,15.84
2018-07-13T03:10:20.156Z,15.90
2018-07-13T03:12:50.439Z,15.82
2018-07-13T03:15:19.882Z,15.84
2018-07-13T03:17:49.379Z,15.85
2018-07-13T03:20:18.824Z,15.89
2018-07-13T03:22:48.313Z,15.87
2018-07-13T03:25:18.760Z,15.80
2018-07-13T03:27:48.360Z,15.86
2018-07-13T03:30:18.503Z,15.87
2018-07-13T03:32:47.970Z,15.85
2018-07-13T03:35:17.973Z,15.79
2018-07-13T03:37:47.386Z,15.81
2018-07-13T03:40:18.225Z,15.90
2018-07-13T03:42:47.734Z,15.88
2018-07-13T03:45:17.830Z,15.93
2018-07-13T03:47:47.461Z,15.92
2018-07-13T03:50:16.911Z,15.94
2018-07-13T03:52:46.385Z,15.93
2018-07-13T03:55:15.580Z,15.82
2018-07-13T03:57:45.096Z,15.86
2018-07-13T04:00:15.274Z,15.92
2018-07-13T04:02:45.126Z,15.92
2018-07-13T04:05:14.741Z,15.83
2018-07-13T04:07:45.721Z,15.87
2018-07-13T04:10:15.278Z,15.87
2018-07-13T04:12:45.011Z,15.87
2018-07-13T04:15:14.313Z,15.93
2018-07-13T04:17:44.263Z,15.85
2018-07-13T04:20:13.899Z,15.87
2018-07-13T04:22:43.901Z,15.88
2018-07-13T04:25:13.502Z,15.88
2018-07-13T04:27:43.097Z,15.89
2018-07-13T04:30:12.670Z,16.00
2018-07-13T04:32:45.731Z,16.00
2018-07-13T04:35:16.290Z,16.16
2018-07-13T04:37:46.152Z,16.05
2018-07-13T04:40:15.876Z,16.03
2018-07-13T04:42:46.407Z,16.01
2018-07-13T04:45:16.700Z,16.01
2018-07-13T04:47:47.477Z,16.10
2018-07-13T04:50:18.160Z,16.16
2018-07-13T04:52:47.778Z,16.12
2018-07-13T04:55:17.626Z,16.17
2018-07-13T04:57:47.253Z,16.19
2018-07-13T05:00:17.326Z,16.25
2018-07-13T05:02:47.228Z,16.17
2018-07-13T05:05:17.505Z,16.15
2018-07-13T05:07:48.529Z,16.10
2018-07-13T05:10:19.114Z,16.11
2018-07-13T05:12:48.766Z,16.14
2018-07-13T05:15:18.503Z,16.14
2018-07-13T05:17:48.864Z,16.27
2018-07-13T05:20:18.098Z,16.30
2018-07-13T05:22:47.626Z,16.33
2018-07-13T05:25:17.135Z,16.38
2018-07-13T05:27:47.935Z,16.40
2018-07-13T05:30:18.370Z,16.41
2018-07-13T05:32:47.980Z,16.40
2018-07-13T05:35:18.845Z,16.44
2018-07-13T05:37:49.397Z,16.52
2018-07-13T05:40:19.248Z,16.59
2018-07-13T05:42:48.489Z,16.49
2018-07-13T05:45:20.337Z,16.54
2018-07-13T05:47:49.952Z,16.59
2018-07-13T05:50:20.321Z,16.56
2018-07-13T05:52:50.513Z,16.64
2018-07-13T05:55:20.387Z,16.64
2018-07-13T05:57:51.364Z,16.59
2018-07-13T06:00:20.885Z,16.64
2018-07-13T06:02:51.403Z,16.63
2018-07-13T06:05:22.332Z,16.54
2018-07-13T06:07:52.472Z,16.52
2018-07-13T06:10:22.584Z,16.57
2018-07-13T06:12:52.371Z,16.69
2018-07-13T06:15:21.817Z,16.75
2018-07-13T06:17:51.833Z,16.65
2018-07-13T06:20:21.389Z,16.61
2018-07-13T06:22:51.991Z,16.73
2018-07-13T06:25:21.982Z,16.79
2018-07-13T06:27:51.631Z,16.90
2018-07-13T06:30:21.611Z,17.16
2018-07-13T06:32:52.594Z,17.02
2018-07-13T06:35:23.548Z,17.07
2018-07-13T06:37:54.506Z,17.05
2018-07-13T06:40:24.122Z,17.18
2018-07-13T06:42:54.053Z,17.16
2018-07-13T06:45:24.528Z,17.24
2018-07-13T06:47:53.730Z,17.30
2018-07-13T06:50:23.019Z,17.32
2018-07-13T06:52:53.032Z,17.20
2018-07-13T06:55:23.011Z,17.32
2018-07-13T06:58:09.543Z,17.29
2018-07-13T07:00:56.668Z,17.27
2018-07-13T07:03:28.032Z,17.36
2018-07-13T07:06:15.840Z,17.51
2018-07-13T07:08:47.937Z,17.63
2018-07-13T07:11:18.889Z,17.78
2018-07-13T07:13:49.121Z,17.99
2018-07-13T07:16:19.081Z,17.91
2018-07-13T07:18:48.633Z,17.99
2018-07-13T07:21:18.901Z,18.06
2018-07-13T07:23:48.540Z,17.97
2018-07-13T07:26:18.805Z,18.04
2018-07-13T07:28:48.369Z,18.04
2018-07-13T07:31:17.907Z,18.23
2018-07-13T07:33:47.794Z,18.18
2018-07-13T07:36:17.810Z,18.23
2018-07-13T07:38:47.434Z,18.28
2018-07-13T07:41:17.099Z,18.37
2018-07-13T07:43:47.228Z,18.76
2018-07-13T07:46:17.029Z,18.65
2018-07-13T07:48:46.518Z,18.78
2018-07-13T07:51:16.201Z,18.49
2018-07-13T07:53:45.652Z,18.71
2018-07-13T07:56:15.258Z,18.83
2018-07-13T07:58:44.769Z,18.77
2018-07-13T08:01:14.675Z,18.68
2018-07-13T08:03:44.205Z,18.93
2018-07-13T08:06:13.676Z,19.16
2018-07-13T08:08:42.863Z,19.35
2018-07-13T08:11:12.069Z,18.89
2018-07-13T08:13:41.437Z,18.66
2018-07-13T08:16:10.977Z,18.53
2018-07-13T08:18:40.204Z,18.60
2018-07-13T08:21:09.898Z,18.56
2018-07-13T08:23:40.669Z,18.60
2018-07-13T08:26:10.618Z,18.79
2018-07-13T08:28:40.203Z,18.66
2018-07-13T08:31:10.922Z,18.64
2018-07-13T08:33:40.388Z,18.69
2018-07-13T08:36:10.020Z,18.71
2018-07-13T08:38:40.111Z,18.64
2018-07-13T08:41:09.394Z,18.79
2018-07-13T08:43:38.976Z,18.86
2018-07-13T08:46:08.800Z,18.82
2018-07-13T08:48:38.578Z,18.88
2018-07-13T08:51:09.502Z,18.92
2018-07-13T08:53:39.479Z,19.15
2018-07-13T08:56:10.176Z,19.27
2018-07-13T08:58:39.780Z,19.17
2018-07-13T09:01:09.266Z,19.27
2018-07-13T09:03:38.560Z,19.26
2018-07-13T09:06:08.237Z,19.32
2018-07-13T09:08:38.344Z,19.24
2018-07-13T09:11:08.721Z,19.05
2018-07-13T09:13:38.386Z,19.21
2018-07-13T09:16:07.902Z,19.36
2018-07-13T09:18:38.231Z,19.48
2018-07-13T09:21:07.831Z,19.39
2018-07-13T09:23:37.464Z,19.23
2018-07-13T09:26:07.098Z,19.39
2018-07-13T09:28:36.670Z,19.57
2018-07-13T09:31:06.343Z,19.50
2018-07-13T09:33:35.907Z,19.51
2018-07-13T09:36:05.955Z,19.62
2018-07-13T09:38:36.102Z,19.54
2018-07-13T09:41:05.793Z,19.80
2018-07-13T09:43:35.366Z,19.99
2018-07-13T09:46:04.647Z,19.96
2018-07-13T09:48:34.104Z,19.94
2018-07-13T09:51:03.912Z,19.81
2018-07-13T09:53:33.500Z,20.11
2018-07-13T09:56:02.993Z,20.07
2018-07-13T09:58:34.828Z,20.45
2018-07-13T10:01:09.554Z,20.44
2018-07-13T10:03:39.076Z,20.45
2018-07-13T10:06:08.635Z,20.59
2018-07-13T10:08:38.257Z,20.57
2018-07-13T10:11:07.926Z,20.55
2018-07-13T10:13:37.403Z,20.73
2018-07-13T10:16:06.917Z,20.59
2018-07-13T10:18:36.529Z,20.81
2018-07-13T10:21:07.703Z,21.04
2018-07-13T10:23:37.222Z,20.92
2018-07-13T10:26:13.230Z,20.79
2018-07-13T10:28:42.796Z,20.86
2018-07-13T10:31:13.832Z,20.79
2018-07-13T10:33:43.623Z,20.93
2018-07-13T10:36:15.467Z,20.90
2018-07-13T10:38:45.261Z,21.06
2018-07-13T10:41:14.915Z,21.17
2018-07-13T10:43:44.229Z,21.15
2018-07-13T10:46:13.934Z,21.22
2018-07-13T10:48:43.588Z,21.17
2018-07-13T10:51:13.065Z,21.38
2018-07-13T10:53:42.592Z,21.39
2018-07-13T10:56:12.023Z,21.60
2018-07-13T10:58:41.571Z,21.34
2018-07-13T11:01:11.005Z,21.18
2018-07-13T11:03:40.836Z,21.44
2018-07-13T11:06:10.321Z,21.37
2018-07-13T11:08:39.825Z,21.74
2018-07-13T11:11:09.495Z,21.51
2018-07-13T11:13:43.042Z,21.68
2018-07-13T11:16:12.557Z,21.73
2018-07-13T11:18:42.151Z,21.71
2018-07-13T11:21:11.760Z,21.74
2018-07-13T11:23:41.288Z,21.83
2018-07-13T11:26:11.150Z,21.72
2018-07-13T11:28:41.256Z,21.80
2018-07-13T11:31:10.747Z,21.89
2018-07-13T11:33:40.228Z,21.90
2018-07-13T11:36:09.957Z,21.93
2018-07-13T11:38:39.633Z,21.86
2018-07-13T11:41:09.202Z,22.02
2018-07-13T11:43:38.678Z,22.08
2018-07-13T11:46:08.099Z,22.15
2018-07-13T11:48:38.011Z,22.13
2018-07-13T11:51:07.877Z,22.21
2018-07-13T11:53:37.479Z,22.48
2018-07-13T11:56:06.901Z,22.55
2018-07-13T11:58:36.341Z,22.13
2018-07-13T12:01:06.090Z,22.34
2018-07-13T12:03:35.704Z,22.50
2018-07-13T12:06:06.222Z,22.81
2018-07-13T12:08:35.570Z,22.58
2018-07-13T12:11:05.001Z,22.51
2018-07-13T12:13:34.973Z,22.67
2018-07-13T12:16:04.714Z,22.98
2018-07-13T12:18:35.284Z,23.05
2018-07-13T12:21:05.189Z,22.93
2018-07-13T12:23:34.793Z,23.11
2018-07-13T12:26:05.990Z,23.68
2018-07-13T12:28:35.510Z,23.92
2018-07-13T12:31:05.737Z,24.83
2018-07-13T12:33:35.370Z,25.35
2018-07-13T12:36:04.854Z,26.32
2018-07-13T12:38:34.474Z,26.57
2018-07-13T12:41:05.695Z,27.18
2018-07-13T12:43:37.199Z,27.10
2018-07-13T12:46:06.975Z,27.22
2018-07-13T12:48:37.600Z,26.77
2018-07-13T12:51:07.865Z,26.39
2018-07-13T12:53:37.447Z,27.25
2018-07-13T12:56:06.966Z,27.24
2018-07-13T12:58:37.098Z,28.30
2018-07-13T13:01:07.741Z,28.79
2018-07-13T13:03:37.316Z,27.80
2018-07-13T13:06:07.468Z,28.84
2018-07-13T13:08:36.647Z,29.24
2018-07-13T13:11:06.760Z,28.05
2018-07-13T13:13:36.288Z,27.30
2018-07-13T13:16:05.965Z,27.74
2018-07-13T13:18:35.608Z,27.39
2018-07-13T13:21:05.367Z,27.61
2018-07-13T13:23:35.106Z,27.05
2018-07-13T13:26:04.717Z,27.57
2018-07-13T13:28:37.598Z,27.99
2018-07-13T13:31:07.250Z,27.99
2018-07-13T13:33:36.479Z,28.20
2018-07-13T13:36:06.101Z,28.44
2018-07-13T13:38:35.666Z,28.91
2018-07-13T13:41:05.408Z,28.22
2018-07-13T13:43:35.233Z,28.12
2018-07-13T13:46:04.862Z,28.54
2018-07-13T13:48:34.945Z,27.94
2018-07-13T13:51:04.707Z,28.60
2018-07-13T13:53:34.854Z,28.14
2018-07-13T13:56:04.435Z,28.12
2018-07-13T13:58:34.020Z,28.87
2018-07-13T14:01:04.010Z,29.05
2018-07-13T14:03:36.146Z,28.72
2018-07-13T14:06:05.460Z,27.88
2018-07-13T14:08:34.947Z,27.77
2018-07-13T14:11:05.188Z,27.67
2018-07-13T14:13:34.444Z,27.86
2018-07-13T14:16:04.269Z,27.91
2018-07-13T14:18:34.457Z,27.43
2018-07-13T14:21:04.588Z,26.94
2018-07-13T14:23:34.937Z,27.22
2018-07-13T14:26:04.765Z,28.58
2018-07-13T14:28:35.399Z,27.80
2018-07-13T14:31:05.643Z,27.32
2018-07-13T14:33:35.421Z,27.42
2018-07-13T14:36:05.558Z,28.27
2018-07-13T14:38:35.467Z,27.60
2018-07-13T14:41:05.257Z,28.25
2018-07-13T14:43:34.955Z,28.23
2018-07-13T14:46:05.464Z,28.56
2018-07-13T14:48:35.426Z,28.20
2018-07-13T14:51:06.485Z,28.03
2018-07-13T14:53:36.378Z,28.12
2018-07-13T14:56:05.999Z,27.68
2018-07-13T14:58:35.469Z,27.64
2018-07-13T15:01:05.111Z,27.52
2018-07-13T15:03:35.549Z,27.59
2018-07-13T15:06:05.804Z,27.97
2018-07-13T15:08:37.897Z,28.10
2018-07-13T15:11:08.834Z,27.43
2018-07-13T15:13:39.582Z,27.02
2018-07-13T15:16:09.796Z,27.57
2018-07-13T15:18:39.512Z,27.45
2018-07-13T15:21:11.126Z,27.58
2018-07-13T15:23:41.519Z,27.09
2018-07-13T15:26:12.354Z,27.60
2018-07-13T15:28:41.855Z,27.22
2018-07-13T15:31:11.498Z,27.48
2018-07-13T15:33:41.970Z,28.04
2018-07-13T15:36:11.813Z,28.12
2018-07-13T15:38:41.293Z,27.32
2018-07-13T15:41:10.875Z,27.48
2018-07-13T15:43:40.455Z,26.73
2018-07-13T15:46:10.049Z,26.88
2018-07-13T15:48:40.153Z,26.70
2018-07-13T15:51:09.652Z,27.66
2018-07-13T15:53:40.545Z,27.61
2018-07-13T15:56:10.749Z,26.98
2018-07-13T15:58:41.376Z,27.53
2018-07-13T16:01:11.693Z,27.70
2018-07-13T16:03:41.499Z,27.36
2018-07-13T16:06:12.002Z,27.09
2018-07-13T16:08:42.197Z,27.04
2018-07-13T16:11:11.853Z,27.05
2018-07-13T16:13:41.352Z,25.53
2018-07-13T16:16:12.381Z,25.57
2018-07-13T16:18:42.814Z,25.69
2018-07-13T16:21:12.448Z,26.06
2018-07-13T16:23:42.172Z,25.67
2018-07-13T16:26:11.965Z,25.33
2018-07-13T16:28:41.716Z,25.54
2018-07-13T16:31:11.092Z,25.74
2018-07-13T16:33:40.613Z,25.26
2018-07-13T16:36:10.090Z,25.09
2018-07-13T16:38:40.199Z,25.83
2018-07-13T16:41:09.915Z,26.21
2018-07-13T16:43:39.366Z,26.06
2018-07-13T16:46:09.433Z,25.84
2018-07-13T16:48:39.190Z,25.30
2018-07-13T16:51:09.195Z,24.93
2018-07-13T16:53:38.648Z,24.80
2018-07-13T16:56:08.633Z,25.38
2018-07-13T16:58:38.211Z,25.93
2018-07-13T17:01:08.354Z,24.87
2018-07-13T17:03:37.898Z,24.40
2018-07-13T17:06:07.251Z,24.69
2018-07-13T17:08:36.762Z,24.40
2018-07-13T17:11:06.257Z,24.00
2018-07-13T17:13:35.759Z,23.34
2018-07-13T17:16:05.623Z,23.03
2018-07-13T17:18:34.872Z,22.29
2018-07-13T17:21:04.472Z,21.89
2018-07-13T17:23:34.573Z,21.72
2018-07-13T17:26:04.209Z,21.46
2018-07-13T17:28:33.705Z,21.43
2018-07-13T17:31:03.152Z,21.04
2018-07-13T17:33:32.759Z,21.11
2018-07-13T17:36:02.234Z,21.41
2018-07-13T17:38:31.742Z,21.22
2018-07-13T17:41:01.473Z,21.04
2018-07-13T17:43:30.982Z,20.63
2018-07-13T17:46:00.470Z,20.61
2018-07-13T17:48:29.976Z,20.43
2018-07-13T17:50:59.509Z,20.43
2018-07-13T17:53:28.941Z,20.28
2018-07-13T17:55:58.265Z,20.40
2018-07-13T17:58:27.848Z,20.31
2018-07-13T18:00:57.174Z,20.23
2018-07-13T18:03:26.598Z,20.17
2018-07-13T18:05:56.554Z,20.18
2018-07-13T18:08:25.960Z,20.17
2018-07-13T18:10:55.649Z,19.91
2018-07-13T18:13:25.168Z,20.14
2018-07-13T18:15:54.661Z,20.23
2018-07-13T18:18:24.373Z,20.13
2018-07-13T18:20:53.874Z,19.91
2018-07-13T18:23:23.464Z,19.86
2018-07-13T18:25:52.853Z,19.57
2018-07-13T18:28:22.311Z,19.28
2018-07-13T18:30:51.909Z,19.11
2018-07-13T18:33:21.328Z,19.10
2018-07-13T18:35:50.773Z,18.97
2018-07-13T18:38:20.357Z,18.94
2018-07-13T18:40:49.922Z,18.92
2018-07-13T18:43:19.458Z,18.86
2018-07-13T18:45:50.040Z,18.89
2018-07-13T18:48:19.599Z,18.90
2018-07-13T18:50:49.052Z,18.71
2018-07-13T18:53:18.549Z,18.50
2018-07-13T18:55:48.097Z,18.43
2018-07-13T18:58:17.571Z,18.50
2018-07-13T19:00:47.142Z,18.28
2018-07-13T19:03:16.709Z,18.25
2018-07-13T19:05:46.429Z,18.08
2018-07-13T19:08:15.924Z,18.11
2018-07-13T19:10:45.578Z,17.77
2018-07-13T19:13:15.164Z,17.85
2018-07-13T19:15:44.802Z,17.87
2018-07-13T19:18:14.905Z,17.78
2018-07-13T19:20:45.310Z,17.70
2018-07-13T19:23:15.797Z,17.66
2018-07-13T19:25:45.840Z,17.50
2018-07-13T19:28:16.821Z,17.37
2018-07-13T19:30:46.482Z,17.40
2018-07-13T19:33:15.858Z,17.37
2018-07-13T19:35:45.146Z,17.34
2018-07-13T19:38:15.661Z,17.28
2018-07-13T19:40:45.156Z,17.26
2018-07-13T19:43:15.106Z,17.08
2018-07-13T19:45:45.396Z,17.09
2018-07-13T19:48:16.284Z,17.10
2018-07-13T19:50:45.867Z,17.00
2018-07-13T19:53:15.918Z,17.04
2018-07-13T19:55:45.562Z,17.01
2018-07-13T19:58:15.061Z,16.83
2018-07-13T20:00:45.342Z,16.80
2018-07-13T20:03:14.673Z,16.77
2018-07-13T20:05:44.108Z,16.83
2018-07-13T20:08:13.770Z,16.68
2018-07-13T20:10:43.465Z,16.54
2018-07-13T20:13:12.876Z,16.51
2018-07-13T20:15:42.023Z,16.50
2018-07-13T20:18:11.526Z,16.49
2018-07-13T20:20:41.650Z,16.47
2018-07-13T20:23:11.119Z,16.48
2018-07-13T20:25:40.675Z,16.51
2018-07-13T20:28:10.238Z,16.45
2018-07-13T20:30:40.063Z,16.45
2018-07-13T20:33:09.828Z,16.43
2018-07-13T20:35:39.568Z,16.40
2018-07-13T20:38:09.761Z,16.41
2018-07-13T20:40:39.339Z,16.39
2018-07-13T20:43:09.377Z,16.42
2018-07-13T20:45:38.864Z,16.38
2018-07-13T20:48:08.389Z,16.34
2018-07-13T20:50:37.820Z,16.39
2018-07-13T20:53:07.683Z,16.30
2018-07-13T20:55:37.551Z,16.30
2018-07-13T20:58:07.536Z,16.28
2018-07-13T21:00:37.564Z,16.26
2018-07-13T21:03:08.011Z,16.25
2018-07-13T21:05:38.276Z,16.11
2018-07-13T21:08:09.149Z,16.12
2018-07-13T21:10:38.906Z,16.05
2018-07-13T21:13:09.194Z,16.02
2018-07-13T21:15:40.249Z,16.05
2018-07-13T21:18:09.559Z,16.03
2018-07-13T21:20:40.092Z,16.09
2018-07-13T21:23:09.425Z,16.01
2018-07-13T21:25:40.031Z,16.00
2018-07-13T21:28:11.177Z,15.96
2018-07-13T21:30:40.967Z,15.87
2018-07-13T21:33:11.430Z,15.86
2018-07-13T21:35:41.560Z,15.75
2018-07-13T21:38:11.771Z,15.68
2018-07-13T21:40:42.368Z,15.67
2018-07-13T21:43:12.758Z,15.59
2018-07-13T21:45:42.412Z,15.49
2018-07-13T21:48:13.093Z,15.43
2018-07-13T21:50:42.608Z,15.42
2018-07-13T21:53:12.629Z,15.37
2018-07-13T21:55:42.068Z,15.20
2018-07-13T21:58:12.090Z,15.15
2018-07-13T22:00:41.676Z,15.10
2018-07-13T22:03:12.378Z,15.08
2018-07-13T22:05:42.925Z,15.03
2018-07-13T22:08:12.639Z,15.03
2018-07-13T22:10:42.556Z,14.99
2018-07-13T22:13:12.242Z,14.96
2018-07-13T22:15:42.182Z,14.89
2018-07-13T22:18:11.826Z,14.91
2018-07-13T22:20:41.947Z,14.84
2018-07-13T22:23:12.589Z,14.82
2018-07-13T22:25:42.195Z,14.82
2018-07-13T22:28:11.784Z,14.84
2018-07-13T22:30:41.277Z,14.83
2018-07-13T22:33:10.881Z,14.78
2018-07-13T22:35:40.964Z,14.73
2018-07-13T22:38:10.473Z,14.69
2018-07-13T22:40:40.100Z,14.69
2018-07-13T22:43:10.970Z,14.59
2018-07-13T22:45:40.814Z,14.56
2018-07-13T22:48:10.192Z,14.61
2018-07-13T22:50:39.700Z,14.54
2018-07-13T22:53:09.320Z,14.50
2018-07-13T22:55:39.379Z,14.48
2018-07-13T22:58:10.869Z,14.44
2018-07-13T23:00:41.523Z,14.46
2018-07-13T23:03:12.761Z,14.37
2018-07-13T23:05:43.259Z,14.39
2018-07-13T23:08:13.793Z,14.31
2018-07-13T23:10:43.528Z,14.41
2018-07-13T23:13:13.269Z,14.35
2018-07-13T23:15:42.695Z,14.34
2018-07-13T23:18:12.737Z,14.36
2018-07-13T23:20:43.134Z,14.47
2018-07-13T23:23:12.976Z,14.34
2018-07-13T23:25:44.045Z,14.23
2018-07-13T23:28:13.790Z,14.22
2018-07-13T23:30:43.036Z,14.16
2018-07-13T23:33:13.402Z,14.21
2018-07-13T23:35:42.873Z,14.26
2018-07-13T23:38:12.329Z,14.18
2018-07-13T23:40:41.699Z,14.16
2018-07-13T23:43:11.277Z,14.18
2018-07-13T23:45:40.910Z,14.09
2018-07-13T23:48:10.380Z,14.09
2018-07-13T23:50:39.921Z,14.10
2018-07-13T23:53:09.550Z,14.08
2018-07-13T23:55:39.169Z,14.06
2018-07-13T23:58:09.128Z,14.04
